createdAt,value
2018-04-24T00:01:58.412Z,53.90
2018-04-24T00:04:25.633Z,53.90
2018-04-24T00:06:52.548Z,53.90
2018-04-24T00:09:18.742Z,53.80
2018-04-24T00:11:45.802Z,53.90
2018-04-24T00:14:12.029Z,53.90
2018-04-24T00:16:38.212Z,53.90
2018-04-24T00:19:05.157Z,53.90
2018-04-24T00:21:32.287Z,53.90
2018-04-24T00:23:58.550Z,53.80
2018-04-24T00:26:25.505Z,53.80
2018-04-24T00:28:52.437Z,53.80
2018-04-24T00:31:19.376Z,53.90
2018-04-24T00:33:46.351Z,53.90
2018-04-24T00:36:12.616Z,53.80
2018-04-24T00:38:40.189Z,53.80
2018-04-24T00:41:06.460Z,53.80
2018-04-24T00:43:33.413Z,53.80
2018-04-24T00:46:00.387Z,53.70
2018-04-24T00:48:26.591Z,53.70
2018-04-24T00:50:52.821Z,53.70
2018-04-24T00:53:19.016Z,53.70
2018-04-24T00:55:45.221Z,53.70
2018-04-24T00:58:11.434Z,53.70
2018-04-24T01:00:37.644Z,53.70
2018-04-24T01:03:03.921Z,53.70
2018-04-24T01:05:30.104Z,53.70
2018-04-24T01:07:56.307Z,53.70
2018-04-24T01:10:22.503Z,53.70
2018-04-24T01:12:48.744Z,53.70
2018-04-24T01:15:18.155Z,53.70
2018-04-24T01:17:45.144Z,53.70
2018-04-24T01:20:11.323Z,53.70
2018-04-24T01:22:37.550Z,53.60
2018-04-24T01:25:03.756Z,53.60
2018-04-24T01:27:29.952Z,53.50
2018-04-24T01:29:56.162Z,53.60
2018-04-24T01:32:22.353Z,53.50
2018-04-24T01:34:48.547Z,53.60
2018-04-24T01:37:15.513Z,53.50
2018-04-24T01:39:41.739Z,53.40
2018-04-24T01:42:09.299Z,53.60
2018-04-24T01:44:35.609Z,53.60
2018-04-24T01:47:01.805Z,53.50
2018-04-24T01:49:27.987Z,53.40
2018-04-24T01:51:54.233Z,53.40
2018-04-24T01:54:20.429Z,53.40
2018-04-24T01:56:46.611Z,53.40
2018-04-24T01:59:13.525Z,53.30
2018-04-24T02:01:40.167Z,53.30
2018-04-24T02:04:06.465Z,53.40
2018-04-24T02:06:32.671Z,53.30
2018-04-24T02:08:58.836Z,53.40
2018-04-24T02:11:25.804Z,53.40
2018-04-24T02:13:54.172Z,53.30
2018-04-24T02:16:20.414Z,53.20
2018-04-24T02:18:46.614Z,53.30
2018-04-24T02:21:12.827Z,53.20
2018-04-24T02:23:39.043Z,53.10
2018-04-24T02:26:05.290Z,53.20
2018-04-24T02:28:31.534Z,53.20
2018-04-24T02:30:57.752Z,53.10
2018-04-24T02:33:23.965Z,53.20
2018-04-24T02:35:50.177Z,53.10
2018-04-24T02:38:16.416Z,53.20
2018-04-24T02:40:42.632Z,53.20
2018-04-24T02:43:08.830Z,53.10
2018-04-24T02:45:35.762Z,53.10
2018-04-24T02:48:02.008Z,53.10
2018-04-24T02:50:28.224Z,53.10
2018-04-24T02:52:54.413Z,53.00
2018-04-24T02:55:20.653Z,53.00
2018-04-24T02:57:46.869Z,53.00
2018-04-24T03:00:13.093Z,53.00
2018-04-24T03:02:39.261Z,53.50
2018-04-24T03:05:06.180Z,52.90
2018-04-24T03:07:32.353Z,52.80
2018-04-24T03:10:01.081Z,52.90
2018-04-24T03:12:33.162Z,53.00
2018-04-24T03:14:59.384Z,52.90
2018-04-24T03:17:25.589Z,53.00
2018-04-24T03:19:52.523Z,53.50
2018-04-24T03:22:18.736Z,52.90
2018-04-24T03:24:45.672Z,52.80
2018-04-24T03:27:12.621Z,52.90
2018-04-24T03:29:39.533Z,52.80
2018-04-24T03:32:15.463Z,52.70
2018-04-24T03:34:42.426Z,52.80
2018-04-24T03:37:08.611Z,52.80
2018-04-24T03:39:34.785Z,52.70
2018-04-24T03:42:12.257Z,52.80
2018-04-24T03:44:39.929Z,52.90
2018-04-24T03:47:06.575Z,52.80
2018-04-24T03:49:33.552Z,52.80
2018-04-24T03:52:05.137Z,52.70
2018-04-24T03:54:31.812Z,52.70
2018-04-24T03:56:57.993Z,52.70
2018-04-24T03:59:24.181Z,53.50
2018-04-24T04:04:32.987Z,52.70
2018-04-24T04:07:00.427Z,52.80
2018-04-24T04:09:27.415Z,52.80
2018-04-24T04:11:54.713Z,52.70
2018-04-24T04:14:21.131Z,52.70
2018-04-24T04:16:47.371Z,52.70
2018-04-24T04:19:13.577Z,52.70
2018-04-24T04:21:40.097Z,52.70
2018-04-24T04:24:06.569Z,52.70
2018-04-24T04:26:32.757Z,52.70
2018-04-24T04:28:58.943Z,52.80
2018-04-24T04:31:25.145Z,52.70
2018-04-24T04:33:51.349Z,52.70
2018-04-24T04:36:17.588Z,53.20
2018-04-24T04:38:43.779Z,53.70
2018-04-24T04:41:10.731Z,54.00
2018-04-24T04:43:37.715Z,53.90
2018-04-24T04:46:03.912Z,53.90
2018-04-24T04:48:30.153Z,53.90
2018-04-24T04:50:56.333Z,53.90
2018-04-24T04:53:22.553Z,53.80
2018-04-24T04:55:49.477Z,55.90
2018-04-24T04:58:15.721Z,55.80
2018-04-24T05:00:42.665Z,55.60
2018-04-24T05:03:08.893Z,55.50
2018-04-24T05:05:35.082Z,55.30
2018-04-24T05:08:01.320Z,55.60
2018-04-24T05:10:27.497Z,55.30
2018-04-24T05:12:53.684Z,54.70
2018-04-24T05:15:20.619Z,68.90
2018-04-24T05:17:47.557Z,70.60
2018-04-24T05:20:14.616Z,71.20
2018-04-24T05:22:40.770Z,71.30
2018-04-24T05:25:07.005Z,71.80
2018-04-24T05:27:33.191Z,74.30
2018-04-24T05:30:00.159Z,66.60
2018-04-24T05:32:27.110Z,70.20
2018-04-24T05:34:53.305Z,70.70
2018-04-24T05:37:19.537Z,67.70
2018-04-24T05:39:45.751Z,67.80
2018-04-24T05:42:12.693Z,64.60
2018-04-24T05:44:38.884Z,64.50
2018-04-24T05:47:05.097Z,62.20
2018-04-24T05:49:31.290Z,61.50
2018-04-24T05:51:57.532Z,61.90
2018-04-24T05:54:23.757Z,61.80
2018-04-24T05:56:50.019Z,60.70
2018-04-24T05:59:16.237Z,59.70
2018-04-24T06:01:42.618Z,59.50
2018-04-24T06:04:08.829Z,59.40
2018-04-24T06:06:35.046Z,58.90
2018-04-24T06:09:01.249Z,58.70
2018-04-24T06:11:28.204Z,58.10
2018-04-24T06:13:54.399Z,58.10
2018-04-24T06:16:20.647Z,57.90
2018-04-24T06:18:46.843Z,57.30
2018-04-24T06:21:13.098Z,57.30
2018-04-24T06:23:39.350Z,57.20
2018-04-24T06:26:05.526Z,56.80
2018-04-24T06:28:31.855Z,56.50
2018-04-24T06:30:57.951Z,55.10
2018-04-24T06:33:24.159Z,53.90
2018-04-24T06:35:50.486Z,52.70
2018-04-24T06:38:16.744Z,53.00
2018-04-24T06:40:43.918Z,52.90
2018-04-24T06:43:10.147Z,51.50
2018-04-24T06:45:36.316Z,51.20
2018-04-24T06:48:02.520Z,49.90
2018-04-24T06:50:28.722Z,50.60
2018-04-24T06:52:54.921Z,50.10
2018-04-24T06:55:28.075Z,50.10
2018-04-24T06:57:56.181Z,50.10
2018-04-24T07:00:32.122Z,50.40
2018-04-24T07:03:02.942Z,50.60
2018-04-24T07:05:35.321Z,50.50
2018-04-24T07:08:01.537Z,50.80
2018-04-24T07:10:27.731Z,51.00
2018-04-24T07:12:53.959Z,51.00
2018-04-24T07:15:22.602Z,51.00
2018-04-24T07:17:48.780Z,51.00
2018-04-24T07:20:15.728Z,51.00
2018-04-24T07:22:41.975Z,50.80
2018-04-24T07:25:08.196Z,50.80
2018-04-24T07:27:34.435Z,50.90
2018-04-24T07:30:00.625Z,50.70
2018-04-24T07:32:26.837Z,50.70
2018-04-24T07:34:53.037Z,50.60
2018-04-24T07:37:20.006Z,50.60
2018-04-24T07:39:46.268Z,50.50
2018-04-24T07:42:12.491Z,50.60
2018-04-24T07:44:38.673Z,50.50
2018-04-24T07:47:04.843Z,50.40
2018-04-24T07:49:31.059Z,50.40
2018-04-24T07:51:57.538Z,50.20
2018-04-24T07:54:23.773Z,50.30
2018-04-24T07:56:49.988Z,50.30
2018-04-24T07:59:17.325Z,50.30
2018-04-24T08:04:34.843Z,50.50
2018-04-24T08:07:01.065Z,50.50
2018-04-24T08:09:27.286Z,50.70
2018-04-24T08:11:56.555Z,50.60
2018-04-24T08:14:24.457Z,50.70
2018-04-24T08:16:51.661Z,50.80
2018-04-24T08:19:17.867Z,50.50
2018-04-24T08:21:44.081Z,50.50
2018-04-24T08:24:11.003Z,50.40
2018-04-24T08:26:38.003Z,50.50
2018-04-24T08:29:04.966Z,50.60
2018-04-24T08:31:40.160Z,50.50
2018-04-24T08:34:09.582Z,50.50
2018-04-24T08:36:49.636Z,50.60
2018-04-24T08:39:15.841Z,50.60
2018-04-24T08:41:49.274Z,50.70
2018-04-24T08:44:20.655Z,50.60
2018-04-24T08:46:59.442Z,50.80
2018-04-24T08:49:36.447Z,50.80
2018-04-24T08:52:02.765Z,50.80
2018-04-24T08:54:29.033Z,50.80
2018-04-24T08:56:55.284Z,50.90
2018-04-24T08:59:21.523Z,51.50
2018-04-24T09:01:48.174Z,50.80
2018-04-24T09:04:14.426Z,50.70
2018-04-24T09:06:40.646Z,50.80
2018-04-24T09:09:06.850Z,50.70
2018-04-24T09:11:33.984Z,51.40
2018-04-24T09:14:01.044Z,50.80
2018-04-24T09:16:27.931Z,50.80
2018-04-24T09:18:54.174Z,50.70
2018-04-24T09:21:20.395Z,50.70
2018-04-24T09:23:46.600Z,50.70
2018-04-24T09:26:13.561Z,50.80
2018-04-24T09:28:39.764Z,50.70
2018-04-24T09:31:05.986Z,50.60
2018-04-24T09:33:33.041Z,50.80
2018-04-24T09:35:59.201Z,50.70
2018-04-24T09:38:25.423Z,50.70
2018-04-24T09:40:51.641Z,50.70
2018-04-24T09:43:17.876Z,50.60
2018-04-24T09:45:44.081Z,50.60
2018-04-24T09:48:11.032Z,50.70
2018-04-24T09:50:37.256Z,50.70
2018-04-24T09:53:03.494Z,50.60
2018-04-24T09:55:30.429Z,50.60
2018-04-24T09:57:57.379Z,50.70
2018-04-24T10:00:30.365Z,50.60
2018-04-24T10:02:56.612Z,50.60
2018-04-24T10:05:22.824Z,50.70
2018-04-24T10:07:50.240Z,50.70
2018-04-24T10:10:16.410Z,50.70
2018-04-24T10:12:42.636Z,50.60
2018-04-24T10:15:08.840Z,50.60
2018-04-24T10:17:35.772Z,50.60
2018-04-24T10:20:02.718Z,50.60
2018-04-24T10:22:29.672Z,50.60
2018-04-24T10:24:57.194Z,50.60
2018-04-24T10:27:23.495Z,50.60
2018-04-24T10:29:49.650Z,50.60
2018-04-24T10:32:15.926Z,50.60
2018-04-24T10:34:42.197Z,50.60
2018-04-24T10:37:09.132Z,50.60
2018-04-24T10:39:36.093Z,50.60
2018-04-24T10:42:02.578Z,50.60
2018-04-24T10:44:28.836Z,50.60
2018-04-24T10:46:55.060Z,50.60
2018-04-24T10:49:21.270Z,50.60
2018-04-24T10:51:48.237Z,50.60
2018-04-24T10:54:14.441Z,50.60
2018-04-24T10:56:41.412Z,50.60
2018-04-24T10:59:07.638Z,50.60
2018-04-24T11:01:35.225Z,50.60
2018-04-24T11:04:02.188Z,50.60
2018-04-24T11:06:28.641Z,50.60
2018-04-24T11:08:54.854Z,50.60
2018-04-24T11:11:21.136Z,50.60
2018-04-24T11:13:47.364Z,50.70
2018-04-24T11:16:13.540Z,50.70
2018-04-24T11:18:39.736Z,50.60
2018-04-24T11:21:05.989Z,50.70
2018-04-24T11:23:33.007Z,50.70
2018-04-24T11:25:59.974Z,50.70
2018-04-24T11:28:26.917Z,50.60
2018-04-24T11:30:53.868Z,50.70
2018-04-24T11:33:20.089Z,50.60
2018-04-24T11:35:46.307Z,50.70
2018-04-24T11:38:12.533Z,50.60
2018-04-24T11:40:38.727Z,51.20
2018-04-24T11:43:04.939Z,50.60
2018-04-24T11:45:31.153Z,50.50
2018-04-24T11:47:57.343Z,50.50
2018-04-24T11:50:23.571Z,50.50
2018-04-24T11:52:49.775Z,50.50
2018-04-24T11:55:15.999Z,50.50
2018-04-24T11:57:42.220Z,50.50
2018-04-24T12:00:08.448Z,50.50
2018-04-24T12:02:34.769Z,50.60
2018-04-24T12:05:00.902Z,50.50
2018-04-24T12:07:27.882Z,50.50
2018-04-24T12:09:54.195Z,50.50
2018-04-24T12:12:20.408Z,50.50
2018-04-24T12:14:46.591Z,50.50
2018-04-24T12:17:13.559Z,50.50
2018-04-24T12:19:39.769Z,50.50
2018-04-24T12:22:06.744Z,50.40
2018-04-24T12:24:33.761Z,50.40
2018-04-24T12:26:59.986Z,50.40
2018-04-24T12:29:26.195Z,50.50
2018-04-24T12:31:52.889Z,50.50
2018-04-24T12:34:19.099Z,50.40
2018-04-24T12:36:45.324Z,50.40
2018-04-24T12:39:11.539Z,50.40
2018-04-24T12:41:37.824Z,50.40
2018-04-24T12:44:04.036Z,50.40
2018-04-24T12:46:30.964Z,50.50
2018-04-24T12:48:57.154Z,50.50
2018-04-24T12:51:23.360Z,50.50
2018-04-24T12:53:49.576Z,50.50
2018-04-24T12:56:16.526Z,50.40
2018-04-24T12:58:43.470Z,50.40
2018-04-24T13:01:10.420Z,50.40
2018-04-24T13:03:37.442Z,50.50
2018-04-24T13:06:03.666Z,50.50
2018-04-24T13:08:29.940Z,51.00
2018-04-24T13:10:56.921Z,50.50
2018-04-24T13:13:23.144Z,50.50
2018-04-24T13:15:49.378Z,50.50
2018-04-24T13:18:15.591Z,50.50
2018-04-24T13:20:41.798Z,50.50
2018-04-24T13:23:08.044Z,50.40
2018-04-24T13:25:34.332Z,50.20
2018-04-24T13:28:01.335Z,50.40
2018-04-24T13:30:28.305Z,50.50
2018-04-24T13:32:54.499Z,50.40
2018-04-24T13:35:20.723Z,50.20
2018-04-24T13:37:47.704Z,50.40
2018-04-24T13:40:13.911Z,50.30
2018-04-24T13:42:40.151Z,49.80
2018-04-24T13:45:06.364Z,50.40
2018-04-24T13:47:34.066Z,50.90
2018-04-24T13:50:01.021Z,50.60
2018-04-24T13:52:27.259Z,50.50
2018-04-24T13:54:53.462Z,51.10
2018-04-24T13:57:19.656Z,50.70
2018-04-24T13:59:45.865Z,50.50
2018-04-24T14:02:12.873Z,50.50
2018-04-24T14:04:39.126Z,50.50
2018-04-24T14:07:05.355Z,50.50
2018-04-24T14:09:31.557Z,50.60
2018-04-24T14:11:57.774Z,50.60
2018-04-24T14:14:23.974Z,50.50
2018-04-24T14:16:50.198Z,50.50
2018-04-24T14:19:17.154Z,50.50
2018-04-24T14:21:43.524Z,50.50
2018-04-24T14:24:09.677Z,50.50
2018-04-24T14:26:35.933Z,50.50
2018-04-24T14:29:02.144Z,50.40
2018-04-24T14:31:28.358Z,50.50
2018-04-24T14:33:54.602Z,50.50
2018-04-24T14:36:20.823Z,50.50
2018-04-24T14:38:47.083Z,50.50
2018-04-24T14:41:14.058Z,50.40
2018-04-24T14:43:40.327Z,50.40
2018-04-24T14:46:06.556Z,50.40
2018-04-24T14:48:32.756Z,50.40
2018-04-24T14:50:58.992Z,50.40
2018-04-24T14:53:25.235Z,50.40
2018-04-24T14:55:51.441Z,50.40
2018-04-24T14:58:18.415Z,50.30
2018-04-24T15:00:44.616Z,50.20
2018-04-24T15:03:10.829Z,50.30
2018-04-24T15:05:37.066Z,50.10
2018-04-24T15:08:03.278Z,50.30
2018-04-24T15:10:30.214Z,50.30
2018-04-24T15:12:56.445Z,50.30
2018-04-24T15:15:23.412Z,50.30
2018-04-24T15:17:50.366Z,50.20
2018-04-24T15:20:16.584Z,50.20
2018-04-24T15:22:42.773Z,50.20
2018-04-24T15:25:09.012Z,50.20
2018-04-24T15:27:36.044Z,50.40
2018-04-24T15:30:02.251Z,50.30
2018-04-24T15:32:28.531Z,50.30
2018-04-24T15:34:54.771Z,50.20
2018-04-24T15:37:21.052Z,50.20
2018-04-24T15:39:47.286Z,50.00
2018-04-24T15:42:13.514Z,50.00
2018-04-24T15:44:40.474Z,50.20
2018-04-24T15:47:06.735Z,50.20
2018-04-24T15:49:33.688Z,50.10
2018-04-24T15:51:59.885Z,50.10
2018-04-24T15:54:26.849Z,50.40
2018-04-24T15:56:53.145Z,50.30
2018-04-24T15:59:19.424Z,50.30
2018-04-24T16:01:45.652Z,50.30
2018-04-24T16:04:11.911Z,50.30
2018-04-24T16:06:38.120Z,50.40
2018-04-24T16:09:04.829Z,50.40
2018-04-24T16:11:31.026Z,50.30
2018-04-24T16:13:57.271Z,50.30
2018-04-24T16:16:23.521Z,50.40
2018-04-24T16:18:50.484Z,50.40
2018-04-24T16:21:17.450Z,50.30
2018-04-24T16:23:43.714Z,50.40
2018-04-24T16:26:09.974Z,50.30
2018-04-24T16:28:36.213Z,50.30
2018-04-24T16:31:03.208Z,51.00
2018-04-24T16:33:29.432Z,51.00
2018-04-24T16:35:55.648Z,51.80
2018-04-24T16:38:21.858Z,53.10
2018-04-24T16:40:48.806Z,56.60
2018-04-24T16:43:14.996Z,56.60
2018-04-24T16:45:41.285Z,56.70
2018-04-24T16:48:07.502Z,57.20
2018-04-24T16:50:33.758Z,56.70
2018-04-24T16:52:59.984Z,55.90
2018-04-24T16:55:26.217Z,55.10
2018-04-24T16:57:52.456Z,55.10
2018-04-24T17:00:18.672Z,54.80
2018-04-24T17:02:44.922Z,55.20
2018-04-24T17:05:11.153Z,55.40
2018-04-24T17:07:37.388Z,55.00
2018-04-24T17:10:03.613Z,54.90
2018-04-24T17:12:29.841Z,54.70
2018-04-24T17:14:56.075Z,54.60
2018-04-24T17:17:22.302Z,54.50
2018-04-24T17:19:48.554Z,54.30
2018-04-24T17:22:15.701Z,54.40
2018-04-24T17:24:42.641Z,54.00
2018-04-24T17:27:09.614Z,53.40
2018-04-24T17:29:36.599Z,53.40
2018-04-24T17:32:04.723Z,53.40
2018-04-24T17:34:31.689Z,53.20
2018-04-24T17:36:57.934Z,53.20
2018-04-24T17:39:24.123Z,53.00
2018-04-24T17:41:51.263Z,52.70
2018-04-24T17:44:17.482Z,52.40
2018-04-24T17:46:43.714Z,52.10
2018-04-24T17:49:10.000Z,52.10
2018-04-24T17:51:36.943Z,51.80
2018-04-24T17:54:03.163Z,51.50
2018-04-24T17:56:29.402Z,51.10
2018-04-24T17:58:55.604Z,49.70
2018-04-24T18:01:22.572Z,52.20
2018-04-24T18:03:48.766Z,52.70
2018-04-24T18:06:15.021Z,51.60
2018-04-24T18:08:41.214Z,51.90
2018-04-24T18:11:07.434Z,51.80
2018-04-24T18:13:33.650Z,52.20
2018-04-24T18:16:00.614Z,52.00
2018-04-24T18:18:27.953Z,52.10
2018-04-24T18:20:54.899Z,51.90
2018-04-24T18:23:21.850Z,52.90
2018-04-24T18:25:48.938Z,52.10
2018-04-24T18:28:16.909Z,52.30
2018-04-24T18:30:43.124Z,52.20
2018-04-24T18:33:09.319Z,52.10
2018-04-24T18:35:35.515Z,52.90
2018-04-24T18:38:02.506Z,52.20
2018-04-24T18:40:28.722Z,52.20
2018-04-24T18:42:55.741Z,52.10
2018-04-24T18:45:21.961Z,52.10
2018-04-24T18:47:48.963Z,52.20
2018-04-24T18:50:15.180Z,52.10
2018-04-24T18:52:41.406Z,52.10
2018-04-24T18:55:07.661Z,52.10
2018-04-24T18:57:33.867Z,52.10
2018-04-24T19:00:00.094Z,52.10
2018-04-24T19:02:26.335Z,52.10
2018-04-24T19:04:53.366Z,52.00
2018-04-24T19:07:19.571Z,51.90
2018-04-24T19:09:45.776Z,52.00
2018-04-24T19:12:12.012Z,52.00
2018-04-24T19:14:38.217Z,51.90
2018-04-24T19:17:04.422Z,51.90
2018-04-24T19:19:30.639Z,51.90
2018-04-24T19:21:57.584Z,52.00
2018-04-24T19:24:29.992Z,51.80
2018-04-24T19:26:56.945Z,51.80
2018-04-24T19:29:23.166Z,51.80
2018-04-24T19:31:56.673Z,51.80
2018-04-24T19:34:23.651Z,51.70
2018-04-24T19:36:50.588Z,51.70
2018-04-24T19:39:23.642Z,51.70
2018-04-24T19:41:50.829Z,51.70
2018-04-24T19:44:17.781Z,51.70
2018-04-24T19:46:44.004Z,51.70
2018-04-24T19:49:17.081Z,51.70
2018-04-24T19:51:43.978Z,51.60
2018-04-24T19:54:10.205Z,51.70
2018-04-24T19:56:36.396Z,51.70
2018-04-24T19:59:02.615Z,51.60
2018-04-24T20:01:28.847Z,51.60
2018-04-24T20:03:55.834Z,51.70
2018-04-24T20:06:22.065Z,51.70
2018-04-24T20:08:48.295Z,51.70
2018-04-24T20:11:14.491Z,51.70
2018-04-24T20:13:41.469Z,51.70
2018-04-24T20:16:07.655Z,51.70
2018-04-24T20:18:33.873Z,51.70
2018-04-24T20:21:00.076Z,51.50
2018-04-24T20:23:26.283Z,51.50
2018-04-24T20:25:52.483Z,51.50
2018-04-24T20:28:19.451Z,53.00
2018-04-24T20:30:45.646Z,52.80
2018-04-24T20:33:11.872Z,51.60
2018-04-24T20:35:38.853Z,52.30
2018-04-24T20:38:05.084Z,52.30
2018-04-24T20:40:31.311Z,52.80
2018-04-24T20:42:57.534Z,52.00
2018-04-24T20:45:23.777Z,51.90
2018-04-24T20:47:49.996Z,51.90
2018-04-24T20:50:16.230Z,52.00
2018-04-24T20:52:43.173Z,51.80
2018-04-24T20:55:10.132Z,51.90
2018-04-24T20:57:36.339Z,51.80
2018-04-24T21:00:03.277Z,51.90
2018-04-24T21:02:29.446Z,51.90
2018-04-24T21:04:56.413Z,51.90
2018-04-24T21:07:22.653Z,51.80
2018-04-24T21:09:48.937Z,51.90
2018-04-24T21:12:15.271Z,51.80
2018-04-24T21:14:41.504Z,51.80
2018-04-24T21:17:07.709Z,51.80
2018-04-24T21:19:34.001Z,51.80
2018-04-24T21:22:00.217Z,51.80
2018-04-24T21:24:26.440Z,51.80
2018-04-24T21:26:52.656Z,51.80
2018-04-24T21:29:18.867Z,51.70
2018-04-24T21:31:45.883Z,51.80
2018-04-24T21:34:12.132Z,51.70
2018-04-24T21:36:38.331Z,51.70
2018-04-24T21:39:04.570Z,51.80
2018-04-24T21:41:31.607Z,51.80
2018-04-24T21:43:57.806Z,51.80
2018-04-24T21:46:24.750Z,51.70
2018-04-24T21:48:51.679Z,51.70
2018-04-24T21:51:17.902Z,51.70
2018-04-24T21:53:44.116Z,51.70
2018-04-24T21:56:10.286Z,51.70
2018-04-24T21:58:37.218Z,51.70
2018-04-24T22:01:04.170Z,51.50
2018-04-24T22:03:30.396Z,51.40
2018-04-24T22:05:56.592Z,51.60
2018-04-24T22:08:23.554Z,51.60
2018-04-24T22:10:49.781Z,51.50
2018-04-24T22:13:16.021Z,51.50
2018-04-24T22:15:42.256Z,51.50
2018-04-24T22:18:08.433Z,51.40
2018-04-24T22:20:35.371Z,51.50
2018-04-24T22:23:01.582Z,51.50
2018-04-24T22:25:27.784Z,51.40
2018-04-24T22:27:54.250Z,51.50
2018-04-24T22:30:20.523Z,51.40
2018-04-24T22:32:46.753Z,51.50
2018-04-24T22:35:12.992Z,51.40
2018-04-24T22:37:39.235Z,51.40
2018-04-24T22:40:05.443Z,51.40
2018-04-24T22:42:31.639Z,51.50
2018-04-24T22:44:57.859Z,51.50
2018-04-24T22:47:24.080Z,51.40
2018-04-24T22:49:50.316Z,51.40
2018-04-24T22:52:16.556Z,51.40
2018-04-24T22:54:43.515Z,51.50
2018-04-24T22:57:09.735Z,51.50
2018-04-24T22:59:35.930Z,51.40
2018-04-24T23:02:02.161Z,51.40
2018-04-24T23:04:28.366Z,51.40
2018-04-24T23:06:54.569Z,51.40
2018-04-24T23:09:20.825Z,51.40
2018-04-24T23:11:47.108Z,51.40
2018-04-24T23:14:13.316Z,51.40
2018-04-24T23:16:39.545Z,51.40
2018-04-24T23:19:05.761Z,51.40
2018-04-24T23:21:33.557Z,51.70
2018-04-24T23:23:59.749Z,51.40
2018-04-24T23:26:26.672Z,51.30
2018-04-24T23:28:52.866Z,51.30
2018-04-24T23:31:19.076Z,51.30
2018-04-24T23:33:45.279Z,51.40
2018-04-24T23:36:11.533Z,51.30
2018-04-24T23:38:37.765Z,51.30
2018-04-24T23:41:04.005Z,51.30
2018-04-24T23:43:30.199Z,51.30
2018-04-24T23:45:56.413Z,51.30
2018-04-24T23:48:22.603Z,51.40
2018-04-24T23:50:49.557Z,51.30
2018-04-24T23:53:15.791Z,51.30
2018-04-24T23:55:41.977Z,51.30
2018-04-24T23:58:08.199Z,51.30
